Time;durP1;ratioP1;P1;durP2;ratioP2;P2;SDS_P1;SDS_P2;PMS_P1;PMS_P2;Temp;Humidity;BMP_temperature;BMP_pressure;BME280_temperature;BME280_humidity;BME280_pressure;Samples;Min_cycle;Max_cycle;Signal;HPM_P1;HPM_P2
2021/05/14 00:00:56;;;;;;;4.90;1.40;;;8.20;73.50;;;;;;5092723;28;20016;-74
2021/05/14 00:03:22;;;;;;;1.80;1.20;;;8.10;73.70;;;;;;5092895;28;20028;-74
2021/05/14 00:05:47;;;;;;;2.97;1.02;;;8.10;73.90;;;;;;5095473;28;20027;-74
2021/05/14 00:08:13;;;;;;;2.03;1.30;;;8.10;74.20;;;;;;5096591;28;20040;-74
2021/05/14 00:10:39;;;;;;;2.20;0.90;;;8.10;74.10;;;;;;5096694;28;20028;-74
2021/05/14 00:13:09;;;;;;;1.98;1.25;;;8.10;74.10;;;;;;5096644;28;20091;-74
2021/05/14 00:15:35;;;;;;;2.08;1.20;;;8.10;74.20;;;;;;5096813;28;20048;-74
2021/05/14 00:18:00;;;;;;;4.57;1.02;;;8.00;73.90;;;;;;5096575;28;20511;-75
2021/05/14 00:20:27;;;;;;;1.60;1.20;;;8.00;74.10;;;;;;5096574;28;20380;-74
2021/05/14 00:22:53;;;;;;;3.35;1.05;;;8.00;74.30;;;;;;5096549;28;20533;-75
2021/05/14 00:25:18;;;;;;;1.83;1.00;;;7.90;74.20;;;;;;5096400;28;20028;-74
2021/05/14 00:27:44;;;;;;;2.00;1.10;;;7.90;74.60;;;;;;5096485;28;20021;-75
2021/05/14 00:30:10;;;;;;;4.63;1.10;;;7.90;74.60;;;;;;5096108;28;20062;-74
2021/05/14 00:32:36;;;;;;;1.60;0.90;;;7.80;74.70;;;;;;5096291;28;20518;-74
2021/05/14 00:35:05;;;;;;;1.70;1.20;;;7.80;75.10;;;;;;5096117;28;20043;-74
2021/05/14 00:37:30;;;;;;;2.25;1.10;;;7.70;75.40;;;;;;5096259;28;20039;-74
2021/05/14 00:39:56;;;;;;;2.85;1.15;;;7.60;75.80;;;;;;5096137;28;20020;-74
2021/05/14 00:42:22;;;;;;;3.30;1.27;;;7.70;76.20;;;;;;5095787;28;20016;-74
2021/05/14 00:44:47;;;;;;;2.70;0.95;;;7.60;76.00;;;;;;5095936;28;20097;-75
2021/05/14 00:47:17;;;;;;;4.20;1.30;;;7.60;76.20;;;;;;5095796;28;20380;-74
2021/05/14 00:49:44;;;;;;;4.40;1.23;;;7.60;76.30;;;;;;5095911;28;20107;-74
2021/05/14 00:52:12;;;;;;;2.40;1.20;;;7.60;76.30;;;;;;5095908;28;20024;-74
2021/05/14 00:54:38;;;;;;;1.40;1.10;;;7.60;76.20;;;;;;5095919;28;20107;-74
2021/05/14 00:57:06;;;;;;;2.88;1.05;;;7.50;76.20;;;;;;5095745;28;20539;-74
2021/05/14 00:59:31;;;;;;;1.25;0.90;;;7.50;76.20;;;;;;5095752;28;20032;-74
2021/05/14 01:01:57;;;;;;;5.13;1.50;;;7.50;76.30;;;;;;5095704;28;20024;-74
2021/05/14 01:04:23;;;;;;;2.47;0.80;;;7.50;76.20;;;;;;5095633;28;20102;-74
2021/05/14 01:06:50;;;;;;;1.27;1.02;;;7.50;76.60;;;;;;5095580;28;20024;-74
2021/05/14 01:09:16;;;;;;;1.77;0.93;;;7.40;76.60;;;;;;5095461;28;20124;-74
2021/05/14 01:11:42;;;;;;;3.20;1.00;;;7.50;76.50;;;;;;5095464;28;20027;-74
2021/05/14 01:14:08;;;;;;;2.85;0.95;;;7.40;76.40;;;;;;5095428;28;20028;-74
2021/05/14 01:16:34;;;;;;;2.30;0.77;;;7.40;76.70;;;;;;5095923;28;20020;-76
2021/05/14 01:19:00;;;;;;;0.95;0.80;;;7.30;76.90;;;;;;5095287;28;20054;-74
2021/05/14 01:21:26;;;;;;;2.53;0.98;;;7.30;76.90;;;;;;5095558;28;20024;-74
2021/05/14 01:23:52;;;;;;;1.52;0.95;;;7.30;77.20;;;;;;5095314;28;20106;-74
2021/05/14 01:26:19;;;;;;;3.88;1.00;;;7.20;77.00;;;;;;5095312;28;20024;-74
2021/05/14 01:28:45;;;;;;;4.32;1.10;;;7.10;77.30;;;;;;5095574;28;20115;-74
2021/05/14 01:31:12;;;;;;;5.82;1.17;;;7.00;77.60;;;;;;5095608;28;20025;-75
2021/05/14 01:33:38;;;;;;;2.35;1.00;;;7.00;77.90;;;;;;5095098;28;20035;-75
2021/05/14 01:36:05;;;;;;;2.50;1.10;;;6.90;78.20;;;;;;5094948;28;20016;-74
2021/05/14 01:38:31;;;;;;;6.00;1.27;;;7.00;78.20;;;;;;5095115;28;20024;-75
2021/05/14 01:40:57;;;;;;;3.92;1.10;;;7.00;78.20;;;;;;5094874;28;20565;-75
2021/05/14 01:43:23;;;;;;;2.38;0.85;;;6.80;79.10;;;;;;5094766;28;20056;-75
2021/05/14 01:45:49;;;;;;;2.33;1.23;;;6.80;78.70;;;;;;5094966;28;20024;-75
2021/05/14 01:48:15;;;;;;;2.33;0.82;;;6.80;78.90;;;;;;5094697;28;20062;-75
2021/05/14 01:50:41;;;;;;;2.20;0.80;;;6.80;79.10;;;;;;5094813;28;20035;-75
2021/05/14 01:53:07;;;;;;;0.95;0.82;;;6.80;79.30;;;;;;5094692;28;20107;-75
2021/05/14 01:55:34;;;;;;;2.30;0.70;;;6.80;79.20;;;;;;5094685;28;20455;-75
2021/05/14 01:57:59;;;;;;;1.95;0.70;;;6.80;79.20;;;;;;5094570;28;20024;-75
2021/05/14 02:00:25;;;;;;;3.50;0.80;;;6.80;79.40;;;;;;5094482;28;20410;-75
2021/05/14 02:02:51;;;;;;;2.53;1.00;;;6.90;79.40;;;;;;5094550;28;20031;-75
2021/05/14 02:05:16;;;;;;;1.08;0.95;;;6.90;79.20;;;;;;5094372;28;20027;-75
2021/05/14 02:07:42;;;;;;;3.33;1.60;;;6.90;78.80;;;;;;5094431;28;20107;-76
2021/05/14 02:10:08;;;;;;;4.13;1.48;;;6.90;78.90;;;;;;5094366;28;20030;-75
2021/05/14 02:12:34;;;;;;;2.17;0.82;;;6.80;79.00;;;;;;5094224;28;20024;-75
2021/05/14 02:14:59;;;;;;;0.90;0.73;;;6.90;79.20;;;;;;5094287;28;20074;-75
2021/05/14 02:17:25;;;;;;;4.32;1.10;;;6.80;79.20;;;;;;5094205;28;20032;-75
2021/05/14 02:19:51;;;;;;;2.72;0.63;;;6.90;79.20;;;;;;5094238;28;20062;-76
2021/05/14 02:22:16;;;;;;;1.45;0.85;;;6.80;79.20;;;;;;5094115;28;20043;-75
2021/05/14 02:24:42;;;;;;;1.67;0.85;;;6.80;79.50;;;;;;5095017;28;20052;-75
2021/05/14 02:27:08;;;;;;;2.03;1.10;;;6.80;79.70;;;;;;5109261;28;20392;-74
2021/05/14 02:29:34;;;;;;;4.05;1.10;;;6.80;79.60;;;;;;5102045;28;20103;-75
2021/05/14 02:32:02;;;;;;;2.85;0.77;;;6.80;79.60;;;;;;5094307;28;20031;-75
2021/05/14 02:34:27;;;;;;;1.60;1.00;;;6.70;79.80;;;;;;5094181;28;20047;-75
2021/05/14 02:36:53;;;;;;;3.50;0.90;;;6.70;79.90;;;;;;5094011;28;20468;-76
2021/05/14 02:39:19;;;;;;;1.42;0.77;;;6.70;80.20;;;;;;5093856;28;20386;-75
2021/05/14 02:41:44;;;;;;;2.25;0.98;;;6.60;80.20;;;;;;5094121;28;20089;-75
2021/05/14 02:44:10;;;;;;;1.85;0.50;;;6.70;80.30;;;;;;5093618;28;20488;-76
2021/05/14 02:46:36;;;;;;;2.78;0.63;;;6.70;80.20;;;;;;5093759;28;20035;-76
2021/05/14 02:49:05;;;;;;;1.17;0.70;;;6.70;80.10;;;;;;5093586;28;20373;-76
2021/05/14 02:51:32;;;;;;;5.20;1.00;;;6.70;80.00;;;;;;5093572;28;20478;-75
2021/05/14 02:53:57;;;;;;;2.78;0.70;;;6.70;80.00;;;;;;5093688;28;20028;-75
2021/05/14 02:56:23;;;;;;;2.13;0.90;;;6.60;79.90;;;;;;5093542;28;20020;-75
2021/05/14 02:58:48;;;;;;;3.92;0.90;;;6.60;80.10;;;;;;5093464;28;20476;-75
2021/05/14 03:01:14;;;;;;;3.22;0.40;;;6.60;80.90;;;;;;5093441;28;20028;-76
2021/05/14 03:03:39;;;;;;;2.05;0.85;;;6.60;80.00;;;;;;5093467;28;20027;-75
2021/05/14 03:06:05;;;;;;;2.28;0.90;;;6.60;80.10;;;;;;5093305;28;20031;-75
2021/05/14 03:08:31;;;;;;;0.98;0.70;;;6.60;80.10;;;;;;5093252;28;20166;-75
2021/05/14 03:10:57;;;;;;;3.55;0.70;;;6.60;80.10;;;;;;5093305;28;20023;-75
2021/05/14 03:13:22;;;;;;;3.00;0.95;;;6.60;80.10;;;;;;5093210;28;20028;-75
2021/05/14 03:15:48;;;;;;;2.33;0.77;;;6.70;80.20;;;;;;5093318;28;20024;-76
2021/05/14 03:18:14;;;;;;;2.38;0.77;;;6.70;80.20;;;;;;5093207;28;20103;-76
2021/05/14 03:20:39;;;;;;;1.95;0.80;;;6.70;80.00;;;;;;5093173;28;20388;-75
2021/05/14 03:23:05;;;;;;;1.33;0.60;;;6.70;80.00;;;;;;5093186;28;20059;-75
2021/05/14 03:25:30;;;;;;;3.00;1.17;;;6.70;80.00;;;;;;5093151;28;20384;-75
2021/05/14 03:27:56;;;;;;;1.02;0.60;;;6.70;80.00;;;;;;5092950;28;20028;-75
2021/05/14 03:30:21;;;;;;;2.08;0.60;;;6.70;80.00;;;;;;5091765;28;20028;-75
2021/05/14 03:32:47;;;;;;;1.70;0.82;;;6.80;80.00;;;;;;5093140;28;20103;-75
2021/05/14 03:35:13;;;;;;;4.45;0.90;;;6.70;79.80;;;;;;5101883;28;20032;-76
2021/05/14 03:37:39;;;;;;;4.32;0.80;;;6.70;79.70;;;;;;5110349;28;20031;-76
2021/05/14 03:40:19;;;;;;;1.00;0.90;;;6.60;79.70;;;;;;5104305;28;20059;-75
2021/05/14 03:42:44;;;;;;;4.05;0.95;;;6.60;80.00;;;;;;5098551;28;20507;-75
2021/05/14 03:45:10;;;;;;;4.25;1.30;;;6.60;80.20;;;;;;5097181;28;20040;-76
2021/05/14 03:47:37;;;;;;;2.28;1.08;;;6.50;80.30;;;;;;5097141;28;20038;-74
2021/05/14 03:50:03;;;;;;;1.30;1.08;;;6.40;80.40;;;;;;5096993;28;20035;-74
2021/05/14 03:52:32;;;;;;;3.00;0.98;;;6.30;80.90;;;;;;5096943;28;20024;-75
2021/05/14 03:54:57;;;;;;;1.10;0.90;;;6.20;81.10;;;;;;5096913;28;20470;-74
2021/05/14 03:57:23;;;;;;;3.83;1.02;;;6.10;81.60;;;;;;5096845;28;20028;-74
2021/05/14 03:59:48;;;;;;;1.20;0.73;;;6.10;81.70;;;;;;5097000;28;20104;-74
2021/05/14 04:02:14;;;;;;;1.98;0.90;;;6.00;82.00;;;;;;5096765;28;20107;-74
2021/05/14 04:04:39;;;;;;;2.63;0.98;;;6.10;82.10;;;;;;5096850;28;20020;-74
2021/05/14 04:07:06;;;;;;;3.88;1.13;;;6.10;82.40;;;;;;5095412;28;20025;-75
2021/05/14 04:09:34;;;;;;;2.58;1.35;;;6.10;82.20;;;;;;5096801;28;20032;-75
2021/05/14 04:14:34;;;;;;;3.33;0.90;;;6.10;82.00;;;;;;5096793;28;20078;-77
2021/05/14 04:17:01;;;;;;;1.50;0.85;;;6.10;82.20;;;;;;5096443;28;20472;-75
2021/05/14 04:19:28;;;;;;;2.22;1.35;;;6.00;83.00;;;;;;5097271;28;20021;-75
2021/05/14 04:21:56;;;;;;;5.20;1.13;;;6.10;82.20;;;;;;5096719;28;20548;-74
2021/05/14 04:24:23;;;;;;;2.28;1.15;;;6.10;82.10;;;;;;5096395;28;20598;-75
2021/05/14 04:26:49;;;;;;;4.72;1.27;;;6.20;81.90;;;;;;5096958;28;20020;-74
2021/05/14 04:29:16;;;;;;;2.75;1.35;;;6.20;81.70;;;;;;5096504;28;20043;-75
2021/05/14 04:31:43;;;;;;;1.70;1.08;;;6.30;81.50;;;;;;5096558;28;20055;-77
2021/05/14 04:34:12;;;;;;;3.60;2.42;;;6.40;81.40;;;;;;5096533;28;20366;-76
2021/05/14 04:36:39;;;;;;;4.57;1.02;;;6.50;81.00;;;;;;5096663;28;20016;-75
2021/05/14 04:39:06;;;;;;;2.83;1.30;;;6.40;80.60;;;;;;5098848;28;20031;-75
2021/05/14 04:41:33;;;;;;;2.83;0.95;;;6.40;80.60;;;;;;5102702;28;20073;-76
2021/05/14 04:43:59;;;;;;;3.20;1.00;;;6.50;80.60;;;;;;5099754;28;20353;-76
2021/05/14 04:46:25;;;;;;;1.95;0.90;;;6.60;80.30;;;;;;5097230;28;20384;-77
2021/05/14 04:48:51;;;;;;;1.58;0.70;;;6.70;80.10;;;;;;5096006;28;20107;-75
2021/05/14 04:51:16;;;;;;;3.58;0.80;;;6.80;79.70;;;;;;5095501;28;20020;-75
2021/05/14 04:53:43;;;;;;;3.25;0.82;;;6.90;79.40;;;;;;5096150;28;20519;-76
2021/05/14 04:56:10;;;;;;;2.63;0.80;;;7.00;79.00;;;;;;5095784;28;20460;-75
2021/05/14 04:58:36;;;;;;;1.13;0.70;;;7.10;79.10;;;;;;5094982;28;20375;-75
2021/05/14 05:01:01;;;;;;;4.60;0.90;;;7.20;79.10;;;;;;5095865;28;20031;-76
2021/05/14 05:03:27;;;;;;;2.45;0.80;;;7.20;78.90;;;;;;5095816;28;20028;-74
2021/05/14 05:05:53;;;;;;;1.83;0.90;;;7.30;78.20;;;;;;5096994;28;20028;-75
2021/05/14 05:08:18;;;;;;;2.58;0.75;;;7.40;78.20;;;;;;5098797;28;20032;-74
2021/05/14 05:10:44;;;;;;;4.68;1.10;;;7.50;78.00;;;;;;5095790;28;20016;-74
2021/05/14 05:13:09;;;;;;;4.25;1.92;;;7.40;77.60;;;;;;5095524;28;20103;-74
2021/05/14 05:15:35;;;;;;;9.70;5.18;;;7.60;77.60;;;;;;5095405;28;20468;-74
2021/05/14 05:18:01;;;;;;;20.25;8.60;;;7.70;77.30;;;;;;5095336;28;20036;-75
2021/05/14 05:20:26;;;;;;;20.98;8.98;;;7.70;76.60;;;;;;5095411;28;20095;-76
2021/05/14 05:22:52;;;;;;;14.30;6.60;;;7.80;76.40;;;;;;5095330;28;20024;-74
2021/05/14 05:25:17;;;;;;;13.90;6.05;;;7.90;76.30;;;;;;5095318;28;20533;-76
2021/05/14 05:27:43;;;;;;;10.88;5.10;;;7.90;76.30;;;;;;5095206;28;20063;-76
2021/05/14 05:30:09;;;;;;;7.85;3.35;;;7.90;76.30;;;;;;5095156;28;20028;-76
2021/05/14 05:32:35;;;;;;;6.03;3.28;;;8.00;76.20;;;;;;5095141;28;20020;-76
2021/05/14 05:35:01;;;;;;;3.70;2.40;;;8.10;76.30;;;;;;5097504;28;20020;-76
2021/05/14 05:37:26;;;;;;;3.58;1.42;;;8.30;75.70;;;;;;5104507;28;20021;-76
2021/05/14 05:39:52;;;;;;;2.55;1.48;;;8.40;75.50;;;;;;5095299;28;20028;-74
2021/05/14 05:42:17;;;;;;;5.07;1.98;;;8.50;75.30;;;;;;5095019;28;20103;-77
2021/05/14 05:44:43;;;;;;;3.47;1.80;;;8.70;75.20;;;;;;5094400;28;20101;-76
2021/05/14 05:47:09;;;;;;;1.40;1.08;;;8.80;75.00;;;;;;5093044;28;20100;-79
2021/05/14 05:49:34;;;;;;;1.02;0.60;;;8.90;74.80;;;;;;5094487;28;20044;-79
2021/05/14 05:52:00;;;;;;;2.70;1.25;;;9.10;74.40;;;;;;5094519;28;20016;-74
2021/05/14 05:54:25;;;;;;;1.48;0.73;;;9.20;73.80;;;;;;5094113;28;20488;-78
2021/05/14 05:56:55;;;;;;;0.93;0.52;;;9.30;73.80;;;;;;5094301;28;20020;-75
2021/05/14 05:59:21;;;;;;;0.82;0.50;;;9.50;73.80;;;;;;5094379;28;20089;-77
2021/05/14 06:01:47;;;;;;;4.07;0.50;;;9.70;73.70;;;;;;5093454;28;20449;-75
2021/05/14 06:04:13;;;;;;;1.80;0.73;;;9.70;73.10;;;;;;5094175;28;20062;-76
2021/05/14 06:06:39;;;;;;;4.50;0.65;;;9.90;72.90;;;;;;5094145;28;20024;-76
2021/05/14 06:09:04;;;;;;;0.82;0.60;;;10.10;72.70;;;;;;5094204;28;20499;-79
2021/05/14 06:11:30;;;;;;;0.93;0.50;;;10.30;72.20;;;;;;5092990;28;20020;-78
2021/05/14 06:13:55;;;;;;;4.30;2.10;;;10.50;71.60;;;;;;5091004;28;20043;-78
2021/05/14 06:16:21;;;;;;;10.95;2.35;;;10.70;70.50;;;;;;5094341;28;20020;-81
2021/05/14 06:18:53;;;;;;;4.60;1.17;;;11.20;78.30;;;;;;5094004;28;20408;-78
2021/05/14 06:21:19;;;;;;;2.03;0.77;;;11.60;76.40;;;;;;5094266;28;20028;-79
2021/05/14 06:23:44;;;;;;;3.30;0.90;;;12.10;71.90;;;;;;5094203;28;20039;-77
2021/05/14 06:26:10;;;;;;;1.88;0.90;;;12.50;70.40;;;;;;5094062;28;20024;-77
2021/05/14 06:28:35;;;;;;;3.13;1.58;;;12.70;67.00;;;;;;5093855;28;20032;-76
2021/05/14 06:31:01;;;;;;;4.45;1.73;;;12.90;66.00;;;;;;5093830;28;20099;-77
2021/05/14 06:33:27;;;;;;;6.28;1.70;;;13.00;63.20;;;;;;5094203;28;20024;-76
2021/05/14 06:35:54;;;;;;;3.22;2.13;;;13.10;63.50;;;;;;5094498;28;20349;-75
2021/05/14 06:38:19;;;;;;;3.10;2.00;;;13.10;62.40;;;;;;5094490;28;20028;-79
2021/05/14 06:40:45;;;;;;;4.90;2.47;;;13.30;61.80;;;;;;5093766;28;20039;-77
2021/05/14 06:43:10;;;;;;;3.22;2.17;;;13.20;60.90;;;;;;5093265;28;20477;-77
2021/05/14 06:45:36;;;;;;;2.78;1.95;;;13.20;60.60;;;;;;5093575;28;20028;-77
2021/05/14 06:48:04;;;;;;;4.30;1.95;;;12.90;60.50;;;;;;5093552;28;20140;-77
2021/05/14 06:50:30;;;;;;;4.15;1.42;;;12.90;61.20;;;;;;5093577;28;20085;-76
2021/05/14 06:52:55;;;;;;;2.55;1.33;;;13.20;61.10;;;;;;5093337;28;20024;-78
2021/05/14 06:55:21;;;;;;;0.98;0.82;;;13.40;61.10;;;;;;5093413;28;20157;-77
2021/05/14 06:57:46;;;;;;;1.10;0.60;;;13.30;59.80;;;;;;5092316;28;20065;-76
2021/05/14 07:00:12;;;;;;;1.77;0.20;;;13.40;59.10;;;;;;5093318;28;20044;-79
2021/05/14 07:02:38;;;;;;;0.95;0.30;;;13.30;58.40;;;;;;5091722;28;20029;-77
2021/05/14 07:05:04;;;;;;;1.90;0.90;;;13.00;59.70;;;;;;5093355;28;20051;-75
2021/05/14 07:07:31;;;;;;;0.55;0.32;;;13.10;59.50;;;;;;5091798;28;20032;-76
2021/05/14 07:09:57;;;;;;;0.50;0.30;;;13.00;59.50;;;;;;5093257;28;20024;-76
2021/05/14 07:12:22;;;;;;;0.25;0.20;;;12.80;59.30;;;;;;5093199;28;20049;-76
2021/05/14 07:14:48;;;;;;;0.15;0.10;;;13.00;60.10;;;;;;5093494;28;20052;-76
2021/05/14 07:17:14;;;;;;;2.03;0.50;;;13.10;58.40;;;;;;5093151;28;20365;-76
2021/05/14 07:19:39;;;;;;;1.42;0.55;;;13.20;59.00;;;;;;5093266;28;20055;-76
2021/05/14 07:22:05;;;;;;;2.25;0.40;;;13.30;58.30;;;;;;5092964;28;20382;-78
2021/05/14 07:24:32;;;;;;;1.05;0.30;;;13.30;58.30;;;;;;5093130;28;20024;-76
2021/05/14 07:26:58;;;;;;;1.08;0.38;;;13.30;59.40;;;;;;5093000;28;20051;-78
2021/05/14 07:29:24;;;;;;;1.98;0.40;;;13.40;58.70;;;;;;5092592;28;20031;-78
2021/05/14 07:31:50;;;;;;;2.65;0.43;;;13.10;58.20;;;;;;5092614;28;20029;-77
2021/05/14 07:34:15;;;;;;;0.93;0.30;;;12.90;58.20;;;;;;5092831;28;20469;-77
2021/05/14 07:36:41;;;;;;;1.88;0.47;;;13.00;59.10;;;;;;5092761;28;20099;-75
2021/05/14 07:39:07;;;;;;;1.08;0.20;;;13.10;59.20;;;;;;5092623;28;20032;-76
2021/05/14 07:41:32;;;;;;;1.40;0.40;;;13.10;58.10;;;;;;5092912;28;20028;-76
2021/05/14 07:43:58;;;;;;;0.85;0.30;;;13.10;58.40;;;;;;5091003;28;20044;-76
2021/05/14 07:46:24;;;;;;;3.60;0.30;;;13.10;57.80;;;;;;5092378;28;20030;-78
2021/05/14 07:48:49;;;;;;;0.93;0.30;;;13.20;57.20;;;;;;5092450;28;20111;-77
2021/05/14 07:51:15;;;;;;;0.40;0.30;;;12.90;57.90;;;;;;5090985;28;20056;-76
2021/05/14 07:53:41;;;;;;;2.45;0.60;;;12.80;57.80;;;;;;5092065;28;20028;-75
2021/05/14 07:56:08;;;;;;;3.20;0.52;;;13.00;57.80;;;;;;5092601;28;20028;-76
2021/05/14 07:58:33;;;;;;;2.50;0.35;;;13.20;57.00;;;;;;5092788;28;20039;-77
2021/05/14 08:00:59;;;;;;;0.50;0.20;;;13.40;53.80;;;;;;5092518;28;20489;-76
2021/05/14 08:03:24;;;;;;;0.65;0.30;;;13.40;54.60;;;;;;5092840;28;20082;-76
2021/05/14 08:05:50;;;;;;;1.50;0.35;;;13.60;53.50;;;;;;5092599;28;20016;-77
2021/05/14 08:08:18;;;;;;;3.63;0.60;;;13.70;54.40;;;;;;5092243;28;20393;-77
2021/05/14 08:10:45;;;;;;;2.20;0.25;;;13.90;52.50;;;;;;5092406;28;20532;-77
2021/05/14 08:13:10;;;;;;;1.80;0.63;;;13.80;51.20;;;;;;5092426;28;20028;-77
2021/05/14 08:15:36;;;;;;;4.32;0.60;;;13.50;52.30;;;;;;5092552;28;20031;-77
2021/05/14 08:18:01;;;;;;;0.98;0.30;;;13.60;53.40;;;;;;5092333;28;20035;-76
2021/05/14 08:20:27;;;;;;;1.67;0.30;;;13.70;53.60;;;;;;5091013;28;20016;-77
2021/05/14 08:22:53;;;;;;;3.63;0.70;;;13.60;52.50;;;;;;5092348;28;20031;-76
2021/05/14 08:25:19;;;;;;;3.13;0.63;;;13.30;54.00;;;;;;5093579;28;20488;-76
2021/05/14 08:27:45;;;;;;;1.92;0.50;;;13.10;53.30;;;;;;5096283;28;20032;-77
2021/05/14 08:30:13;;;;;;;3.22;0.28;;;13.00;53.30;;;;;;5096117;28;20035;-77
2021/05/14 08:32:39;;;;;;;3.10;0.82;;;13.00;53.40;;;;;;5096122;28;20047;-77
2021/05/14 08:35:06;;;;;;;2.20;0.43;;;13.10;53.80;;;;;;5095639;28;20464;-77
2021/05/14 08:37:31;;;;;;;0.85;0.28;;;13.20;53.40;;;;;;5095826;28;20427;-77
2021/05/14 08:39:57;;;;;;;1.88;0.47;;;13.30;52.70;;;;;;5095807;28;20020;-77
2021/05/14 08:42:23;;;;;;;1.55;0.43;;;13.40;52.90;;;;;;5095926;28;20589;-77
2021/05/14 08:44:49;;;;;;;3.15;0.82;;;13.70;53.70;;;;;;5095432;28;20044;-77
2021/05/14 08:47:15;;;;;;;2.33;0.40;;;13.90;52.40;;;;;;5095421;28;20170;-76
2021/05/14 08:49:44;;;;;;;2.10;0.60;;;14.10;51.60;;;;;;5095673;28;20099;-77
2021/05/14 08:52:11;;;;;;;1.65;0.55;;;14.10;51.80;;;;;;5095680;28;20021;-76
2021/05/14 08:54:42;;;;;;;1.23;0.43;;;14.40;50.50;;;;;;5095665;28;20085;-76
2021/05/14 08:57:09;;;;;;;4.55;0.73;;;14.50;49.50;;;;;;5095207;28;20380;-77
2021/05/14 08:59:34;;;;;;;4.38;0.80;;;14.70;49.60;;;;;;5095000;28;20027;-77
2021/05/14 09:02:00;;;;;;;2.25;0.50;;;14.90;49.10;;;;;;5095412;28;20028;-77
2021/05/14 09:04:30;;;;;;;3.28;0.55;;;14.80;47.90;;;;;;5095170;28;20020;-76
2021/05/14 09:06:56;;;;;;;1.63;0.50;;;14.90;46.10;;;;;;5095104;28;20023;-77
2021/05/14 09:09:22;;;;;;;1.55;0.50;;;14.90;47.30;;;;;;5094947;28;20032;-76
2021/05/14 09:11:51;;;;;;;4.38;0.80;;;14.90;46.50;;;;;;5095155;28;20028;-77
2021/05/14 09:14:46;;;;;;;2.80;0.70;;;14.80;47.00;;;;;;5094902;28;20468;-77
2021/05/14 09:17:13;;;;;;;5.10;0.88;;;14.90;46.90;;;;;;5095115;28;20035;-77
2021/05/14 09:19:44;;;;;;;1.45;0.52;;;14.70;47.40;;;;;;5095149;28;20023;-77
2021/05/14 09:22:13;;;;;;;3.63;0.40;;;14.60;46.40;;;;;;5095278;28;20020;-77
2021/05/14 09:24:41;;;;;;;1.50;0.50;;;14.60;45.40;;;;;;5095013;28;20028;-76
2021/05/14 09:27:26;;;;;;;4.05;0.80;;;14.30;46.90;;;;;;5094965;28;20031;-76
2021/05/14 09:29:51;;;;;;;2.22;0.80;;;14.20;48.70;;;;;;5095054;28;20035;-77
2021/05/14 09:32:22;;;;;;;2.65;1.00;;;14.30;49.50;;;;;;5095071;28;20031;-77
2021/05/14 09:34:53;;;;;;;2.40;0.60;;;14.60;48.50;;;;;;5095245;28;20028;-76
2021/05/14 09:37:19;;;;;;;4.68;1.23;;;14.80;47.70;;;;;;5093765;28;20034;-76
2021/05/14 09:39:45;;;;;;;3.95;1.13;;;14.40;48.20;;;;;;5094688;28;20031;-76
2021/05/14 09:42:11;;;;;;;1.75;0.60;;;14.50;48.00;;;;;;5094666;28;20024;-76
2021/05/14 09:44:37;;;;;;;2.78;0.85;;;14.30;48.80;;;;;;5094141;28;20050;-76
2021/05/14 09:47:02;;;;;;;2.88;0.73;;;14.20;48.10;;;;;;5094331;28;20499;-76
2021/05/14 09:49:29;;;;;;;1.25;0.50;;;14.30;48.10;;;;;;5094421;28;20043;-76
2021/05/14 09:51:56;;;;;;;1.65;0.63;;;14.50;49.00;;;;;;5094709;28;20020;-76
2021/05/14 09:54:31;;;;;;;2.50;0.55;;;14.90;49.00;;;;;;5094282;28;20035;-77
2021/05/14 09:57:20;;;;;;;1.77;0.50;;;15.30;48.40;;;;;;5093570;28;20035;-76
2021/05/14 09:59:51;;;;;;;3.78;0.90;;;15.80;48.00;;;;;;5093523;28;20273;-77
2021/05/14 10:02:29;;;;;;;1.98;0.60;;;16.20;44.30;;;;;;5093725;28;20027;-77
2021/05/14 10:04:56;;;;;;;2.08;0.40;;;16.20;43.30;;;;;;5093877;28;20028;-77
2021/05/14 10:07:26;;;;;;;3.25;0.65;;;16.00;42.70;;;;;;5093392;28;20026;-77
2021/05/14 10:09:56;;;;;;;3.70;0.65;;;15.60;43.00;;;;;;5093294;28;20108;-77
2021/05/14 10:12:22;;;;;;;4.28;1.35;;;15.20;44.20;;;;;;5093326;28;20089;-79
2021/05/14 10:14:49;;;;;;;3.80;0.60;;;15.10;45.10;;;;;;5093167;28;20380;-79
2021/05/14 10:17:14;;;;;;;3.35;0.50;;;15.00;46.00;;;;;;5093722;28;20495;-77
2021/05/14 10:19:42;;;;;;;1.75;0.50;;;14.70;46.80;;;;;;5093699;28;20031;-77
2021/05/14 10:22:09;;;;;;;3.15;0.90;;;14.50;45.90;;;;;;5093693;28;20109;-77
2021/05/14 10:24:46;;;;;;;0.90;0.40;;;14.40;44.70;;;;;;5093708;28;20062;-77
2021/05/14 10:27:29;;;;;;;1.00;0.38;;;14.60;44.60;;;;;;5093747;28;20032;-85
2021/05/14 10:29:59;;;;;;;2.20;0.40;;;14.70;43.60;;;;;;5093899;28;20131;-78
2021/05/14 10:32:43;;;;;;;1.92;0.70;;;14.80;43.60;;;;;;5093846;28;20376;-84
2021/05/14 10:35:11;;;;;;;2.88;0.60;;;14.80;43.90;;;;;;5092543;28;20031;-83
2021/05/14 10:37:55;;;;;;;1.42;0.52;;;14.90;43.90;;;;;;5092512;28;20055;-83
2021/05/14 10:40:33;;;;;;;1.85;0.20;;;14.80;44.10;;;;;;5093587;28;20028;-83
2021/05/14 10:43:01;;;;;;;5.80;0.60;;;14.80;44.20;;;;;;5091971;28;20031;-82
2021/05/14 10:45:59;;;;;;;0.85;0.50;;;14.50;44.60;;;;;;5091950;28;20058;-80
2021/05/14 10:48:26;;;;;;;2.95;0.70;;;14.70;44.00;;;;;;5091402;28;20503;-77
2021/05/14 10:50:56;;;;;;;3.00;1.05;;;15.00;42.50;;;;;;5092891;28;20384;-78
2021/05/14 10:53:30;;;;;;;1.27;0.70;;;15.30;41.70;;;;;;5093097;28;20032;-75
2021/05/14 10:56:11;;;;;;;2.53;0.22;;;15.80;41.10;;;;;;5092983;28;20377;-78
2021/05/14 10:59:00;;;;;;;1.75;0.38;;;16.50;41.30;;;;;;5093257;28;20024;-77
2021/05/14 11:01:27;;;;;;;0.52;0.30;;;17.20;40.30;;;;;;5093086;28;20409;-78
2021/05/14 11:03:53;;;;;;;2.45;0.60;;;17.60;38.50;;;;;;5091703;28;20115;-80
2021/05/14 11:06:19;;;;;;;1.27;0.28;;;17.70;37.70;;;;;;5093173;28;20048;-75
2021/05/14 11:09:12;;;;;;;2.80;0.20;;;18.10;37.40;;;;;;5092987;28;20111;-76
2021/05/14 11:12:00;;;;;;;2.63;0.57;;;18.60;37.50;;;;;;5090995;28;20385;-78
2021/05/14 11:14:39;;;;;;;1.23;0.40;;;18.60;37.00;;;;;;5092879;28;20464;-79
2021/05/14 11:17:08;;;;;;;2.30;0.50;;;18.20;36.90;;;;;;5092821;28;20024;-78
2021/05/14 11:19:43;;;;;;;2.72;0.30;;;17.80;35.90;;;;;;5091594;28;20388;-76
2021/05/14 11:22:16;;;;;;;2.13;0.22;;;17.20;35.90;;;;;;5091582;28;20353;-77
2021/05/14 11:24:47;;;;;;;2.63;0.38;;;16.80;36.40;;;;;;5092884;28;20322;-76
2021/05/14 11:27:15;;;;;;;2.72;0.43;;;17.10;37.20;;;;;;5092460;28;20106;-77
2021/05/14 11:29:45;;;;;;;1.65;0.40;;;17.00;36.80;;;;;;5092691;28;20127;-78
2021/05/14 11:32:14;;;;;;;4.57;0.30;;;17.40;37.10;;;;;;5090002;28;20024;-79
2021/05/14 11:35:02;;;;;;;0.95;0.30;;;17.70;35.60;;;;;;5107396;28;20422;-77
2021/05/14 11:37:33;;;;;;;0.85;0.30;;;17.90;34.00;;;;;;5092513;28;20077;-77
2021/05/14 11:40:34;;;;;;;0.20;0.20;;;18.10;33.10;;;;;;5092720;28;20418;-75
2021/05/14 11:43:11;;;;;;;0.70;0.25;;;18.50;32.70;;;;;;5088615;28;20035;-74
2021/05/14 11:45:41;;;;;;;1.25;0.13;;;18.80;32.00;;;;;;5092701;28;20051;-75
2021/05/14 11:48:12;;;;;;;2.70;0.50;;;18.60;32.70;;;;;;5108208;28;20028;-75
2021/05/14 11:50:48;;;;;;;2.75;0.30;;;18.80;33.30;;;;;;5092827;28;20051;-73
2021/05/14 11:53:15;;;;;;;2.30;0.60;;;19.20;32.20;;;;;;5092568;28;20107;-74
2021/05/14 11:55:43;;;;;;;1.35;0.30;;;19.20;32.10;;;;;;5092582;28;20077;-74
2021/05/14 11:58:10;;;;;;;2.70;0.40;;;18.90;32.70;;;;;;5092175;28;20056;-73
2021/05/14 12:00:46;;;;;;;1.00;0.35;;;18.70;32.90;;;;;;5110221;28;20452;-73
2021/05/14 12:03:19;;;;;;;1.30;0.30;;;18.10;33.60;;;;;;5095857;28;20116;-76
2021/05/14 12:05:48;;;;;;;1.80;0.30;;;18.00;34.10;;;;;;5093858;28;20017;-76
2021/05/14 12:08:14;;;;;;;2.25;0.32;;;17.70;33.40;;;;;;5095675;28;20155;-78
2021/05/14 12:10:49;;;;;;;1.55;0.68;;;17.60;33.50;;;;;;5096645;28;20052;-78
2021/05/14 12:13:16;;;;;;;1.55;0.40;;;18.20;33.50;;;;;;5096187;28;20481;-78
2021/05/14 12:15:42;;;;;;;0.52;0.20;;;18.70;32.10;;;;;;5096389;28;20020;-76
2021/05/14 12:18:09;;;;;;;0.38;0.10;;;18.30;30.70;;;;;;5096791;28;20081;-76
2021/05/14 12:20:42;;;;;;;0.60;0.17;;;18.50;30.60;;;;;;5096200;28;20062;-77
2021/05/14 12:23:11;;;;;;;1.05;0.22;;;18.90;30.50;;;;;;5096195;28;20023;-75
2021/05/14 12:26:02;;;;;;;0.88;0.30;;;19.10;31.10;;;;;;5096088;28;20527;-78
2021/05/14 12:28:30;;;;;;;2.88;1.67;;;19.40;30.80;;;;;;5096021;28;20064;-77
2021/05/14 12:30:56;;;;;;;1.55;0.40;;;20.00;30.50;;;;;;5095971;28;20024;-77
2021/05/14 12:33:22;;;;;;;2.17;0.30;;;19.80;29.80;;;;;;5095875;28;20368;-77
2021/05/14 12:36:07;;;;;;;3.70;0.52;;;19.60;29.20;;;;;;5096023;28;20024;-77
2021/05/14 12:38:46;;;;;;;1.70;0.40;;;19.20;29.80;;;;;;5095835;28;20024;-77
2021/05/14 12:41:26;;;;;;;1.80;0.40;;;19.50;30.30;;;;;;5095487;28;20040;-78
2021/05/14 12:44:10;;;;;;;0.55;0.10;;;19.80;30.30;;;;;;5095471;28;20044;-78
2021/05/14 12:46:36;;;;;;;1.05;0.30;;;20.30;30.00;;;;;;5095505;28;20028;-77
2021/05/14 12:49:10;;;;;;;0.35;0.10;;;20.20;28.80;;;;;;5095562;28;20640;-77
2021/05/14 12:51:37;;;;;;;2.30;0.13;;;20.20;27.80;;;;;;5095591;28;20016;-77
2021/05/14 12:54:03;;;;;;;0.20;0.17;;;20.00;27.80;;;;;;5095558;28;20039;-79
2021/05/14 12:56:29;;;;;;;1.05;0.40;;;20.10;27.20;;;;;;5095429;28;20043;-77